Airfield :
LOGIN :

Register | Disclaimer

   EN    FR    IT 

 










Legend :    VFR   Marginal VFR   IFR   Intensive IFR   Very Intensive IFR
Visi :
Ceiling :
>= 8 km
>= 3000ft
5 to 8 km
1000 to 3000 ft
1500m to 5 km
500 to 1000 ft
800 to 1500m
200 to 500 ft
< 800m
< 200 ft
Symbols :   Thunderstorms  Fog  Heavy snow  Heavy precipitations  Wind > 20 kt
SIGMETs :     Misc.  Thunderstorms  Icing  Turbulence  Mountain Waves  Volcanic Ashes






- Airport Elevation : 13 ft
- IATA code : OST


EBOS - Oostend bruges Int.

CURRENT METAR :
  • 071020Z 29009KT 260V320 9999 FEW021 09/04 Q1017 NOSIG

EXPIRED METARs :
  • 070950Z 30009KT 260V330 9999 FEW021 09/03 Q1017 NOSIG
  • 070920Z 29010KT 9999 FEW022 09/04 Q1017 NOSIG
  • 070850Z 29010KT 9999 FEW020 08/03 Q1016 NOSIG
  • 070820Z 31010KT 9999 SCT018 08/04 Q1015 NOSIG

TAF TAF EBOS
Valid from the 07 at 06:00 until the 08 at 12:00 UTC


070510Z 0706/0812 30012KT 9999 SCT020
BECMG 0720/0723 21007KT
BECMG 0806/0809 15013KT
PROB30
TEMPO 0809/0812 16015G25KT 4500 RA BKN014



MET'MAP, your aeronautical weather chart ! - Copyright ORBIFLY December 2007 - Disclaimer

ORBIFLY MET'MAP TEAM :

Programming & Development : Alexandra Zaïnal
Concept & original design : Baudouin d'Aumeries
Assistance for programming : Marc-Olivier Méhu
Technical & hardware support : Manuel Goepfert

Contact : metmap@orbifly.com




SOURCES & CREDITS :

   NOAA